createdAt,value
2019-05-03T08:12:32.485Z,15.10
2019-05-03T08:22:34.518Z,16.50
2019-05-03T08:32:35.377Z,16.30
2019-05-03T08:42:36.402Z,15.90
2019-05-03T08:52:37.661Z,16.00
2019-05-03T09:02:38.957Z,16.40
2019-05-03T09:12:40.234Z,17.10
2019-05-03T09:22:41.506Z,19.30
2019-05-03T09:32:44.791Z,20.00
2019-05-03T09:42:44.583Z,19.50
2019-05-03T09:52:47.117Z,18.70
2019-05-03T10:02:46.761Z,18.10
2019-05-03T10:12:48.084Z,18.20
2019-05-03T10:22:49.376Z,19.90
2019-05-03T10:32:50.699Z,20.90
2019-05-03T10:42:52.746Z,20.60
2019-05-03T10:52:55.518Z,20.50
2019-05-03T11:02:55.335Z,20.50
2019-05-03T11:12:56.613Z,18.90
2019-05-03T11:22:57.884Z,18.10
2019-05-03T11:32:59.942Z,17.30
2019-05-03T11:43:01.238Z,17.30
2019-05-03T11:53:02.516Z,17.20
2019-05-03T12:03:04.984Z,15.90
2019-05-03T12:13:05.274Z,15.50
2019-05-03T12:23:07.426Z,15.20
2019-05-03T12:33:07.929Z,15.10
2019-05-03T12:43:09.233Z,15.00
2019-05-03T12:53:10.528Z,15.10
2019-05-03T13:13:21.162Z,15.70
2019-05-03T13:23:25.164Z,16.10
2019-05-03T13:33:25.348Z,16.40
2019-05-03T13:43:26.741Z,16.40
2019-05-03T13:53:28.045Z,16.80
2019-05-03T14:03:29.326Z,16.90
2019-05-03T14:13:32.669Z,16.80
2019-05-03T14:23:34.672Z,16.40
2019-05-03T14:33:35.473Z,16.50
2019-05-03T14:43:36.580Z,16.80
2019-05-03T14:53:37.841Z,17.00
2019-05-03T15:03:41.217Z,16.70
2019-05-03T15:13:42.519Z,15.80
2019-05-03T15:23:45.337Z,15.40
2019-05-03T15:33:45.175Z,15.30
2019-05-03T15:43:46.473Z,15.40
2019-05-03T15:53:47.774Z,15.30
2019-05-03T16:14:09.461Z,14.60
2019-05-03T16:24:10.771Z,14.60
